YLSM weather

Lismore Airport
Victoria, Australia

Public forecast

Using degrees Celsius for public forecast. Weather courtesy of forecast.io.

METAR (pilot weather report)

Closest report is Avalon Airport, 53.3 nm (98.8 km) E. Retrieved 2019/04/18 23:30 UTC (26 minutes ago):

YMAV 182330Z AUTO 10010KT 9999 // NCD 16/10 Q1027 RF00.0/000.0

TAF (pilot weather forecast)

Closest forecast is Avalon Airport, 53.3 nm (98.8 km) E. Retrieved 2019/04/18 18:00 UTC (6 hours ago):

TAF YMAV 181719Z 1818/1918 11008KT 9999 FEW025 FM190200 15008KT CAVOK FM191000 29006KT CAVOK